createdAt,value
2019-03-12T00:00:05.131Z,0
2019-03-12T00:01:04.853Z,0
2019-03-12T00:02:04.814Z,0
2019-03-12T00:03:04.768Z,0
2019-03-12T00:04:04.738Z,0
2019-03-12T00:05:04.703Z,0
2019-03-12T00:06:04.432Z,0
2019-03-12T00:07:04.648Z,0
2019-03-12T00:08:04.613Z,0
2019-03-12T00:09:04.582Z,0
2019-03-12T00:10:04.549Z,0
2019-03-12T00:11:04.975Z,0
2019-03-12T00:12:04.482Z,0
2019-03-12T00:13:04.455Z,0
2019-03-12T00:14:04.419Z,0
2019-03-12T00:15:04.403Z,0
2019-03-12T00:16:04.359Z,0
2019-03-12T00:17:04.334Z,0
2019-03-12T00:18:04.384Z,0
2019-03-12T00:19:04.269Z,0
2019-03-12T00:20:04.230Z,0
2019-03-12T00:21:04.196Z,0
2019-03-12T00:22:04.250Z,0
2019-03-12T00:23:04.138Z,0
2019-03-12T00:24:04.100Z,0
2019-03-12T00:25:04.072Z,0
2019-03-12T00:26:04.048Z,0
2019-03-12T00:27:03.778Z,0
2019-03-12T00:28:03.983Z,0
2019-03-12T00:29:03.942Z,0
2019-03-12T00:30:03.917Z,0
2019-03-12T00:31:03.876Z,0
2019-03-12T00:32:03.836Z,0
2019-03-12T00:33:03.806Z,0
2019-03-12T00:34:03.784Z,0
2019-03-12T00:35:03.746Z,0
2019-03-12T00:36:03.793Z,0
2019-03-12T00:37:03.682Z,0
2019-03-12T00:38:03.653Z,0
2019-03-12T00:39:03.644Z,0
2019-03-12T00:40:03.591Z,0
2019-03-12T00:41:03.549Z,0
2019-03-12T00:42:03.612Z,0
2019-03-12T00:43:03.497Z,0
2019-03-12T00:44:03.471Z,0
2019-03-12T00:45:03.431Z,0
2019-03-12T00:46:03.408Z,0
2019-03-12T00:47:03.364Z,0
2019-03-12T00:48:03.325Z,0
2019-03-12T00:49:03.335Z,0
2019-03-12T00:50:03.269Z,0
2019-03-12T00:51:03.240Z,0
2019-03-12T00:52:03.200Z,0
2019-03-12T00:53:03.168Z,0
2019-03-12T00:54:03.129Z,0
2019-03-12T00:55:03.101Z,0
2019-03-12T00:56:03.077Z,0
2019-03-12T00:57:02.896Z,0
2019-03-12T00:58:03.006Z,0
2019-03-12T00:59:02.969Z,0
2019-03-12T01:00:03.627Z,0
2019-03-12T01:01:02.903Z,0
2019-03-12T01:02:02.867Z,0
2019-03-12T01:03:02.840Z,0
2019-03-12T01:04:02.808Z,0
2019-03-12T01:05:02.776Z,0
2019-03-12T01:06:02.748Z,0
2019-03-12T01:07:02.714Z,0
2019-03-12T01:08:02.709Z,0
2019-03-12T01:09:02.742Z,0
2019-03-12T01:10:02.723Z,0
2019-03-12T01:11:02.580Z,0
2019-03-12T01:12:02.542Z,0
2019-03-12T01:13:02.278Z,0
2019-03-12T01:14:02.487Z,0
2019-03-12T01:15:02.723Z,0
2019-03-12T01:16:02.552Z,0
2019-03-12T01:17:02.380Z,0
2019-03-12T01:18:02.354Z,0
2019-03-12T01:19:02.315Z,0
2019-03-12T01:20:02.286Z,0
2019-03-12T01:21:02.256Z,0
2019-03-12T01:22:01.981Z,0
2019-03-12T01:23:02.194Z,0
2019-03-12T01:24:02.145Z,0
2019-03-12T01:25:02.206Z,0
2019-03-12T01:26:02.087Z,0
2019-03-12T01:27:02.055Z,0
2019-03-12T01:28:02.025Z,0
2019-03-12T01:29:01.983Z,0
2019-03-12T01:30:01.959Z,0
2019-03-12T01:31:01.922Z,0
2019-03-12T01:32:01.892Z,0
2019-03-12T01:33:01.858Z,0
2019-03-12T01:34:01.835Z,0
2019-03-12T01:35:01.794Z,0
2019-03-12T01:36:01.768Z,0
2019-03-12T01:37:01.730Z,0
2019-03-12T01:38:01.693Z,0
2019-03-12T01:39:01.656Z,0
2019-03-12T01:40:01.672Z,0
2019-03-12T01:41:01.593Z,0
2019-03-12T01:42:01.581Z,0
2019-03-12T01:43:01.537Z,0
2019-03-12T01:44:01.615Z,0
2019-03-12T01:45:01.460Z,0
2019-03-12T01:46:01.434Z,0
2019-03-12T01:47:01.401Z,0
2019-03-12T01:48:01.363Z,0
2019-03-12T01:49:01.332Z,0
2019-03-12T01:50:01.298Z,0
2019-03-12T01:51:01.265Z,0
2019-03-12T01:52:01.233Z,0
2019-03-12T01:53:01.287Z,0
2019-03-12T01:54:01.166Z,0
2019-03-12T01:55:01.145Z,0
2019-03-12T01:56:01.103Z,0
2019-03-12T01:57:01.069Z,0
2019-03-12T01:58:01.038Z,0
2019-03-12T01:59:01.010Z,0
2019-03-12T02:00:00.971Z,0
2019-03-12T02:01:00.928Z,0
2019-03-12T02:02:00.909Z,0
2019-03-12T02:03:00.872Z,0
2019-03-12T02:04:00.910Z,0
2019-03-12T02:05:00.808Z,0
2019-03-12T02:06:00.771Z,0
2019-03-12T02:07:02.262Z,0
2019-03-12T02:08:00.706Z,0
2019-03-12T02:09:00.670Z,0
2019-03-12T02:10:00.655Z,0
2019-03-12T02:11:00.597Z,0
2019-03-12T02:12:00.636Z,0
2019-03-12T02:13:00.539Z,0
2019-03-12T02:14:00.499Z,0
2019-03-12T02:15:00.472Z,0
2019-03-12T02:16:00.207Z,0
2019-03-12T02:17:00.410Z,0
2019-03-12T02:18:00.407Z,0
2019-03-12T02:19:00.421Z,0
2019-03-12T02:20:00.307Z,0
2019-03-12T02:21:00.273Z,0
2019-03-12T02:22:00.097Z,0
2019-03-12T02:23:00.211Z,0
2019-03-12T02:24:00.169Z,0
2019-03-12T02:25:00.401Z,0
2019-03-12T02:26:00.105Z,0
2019-03-12T02:27:00.081Z,0
2019-03-12T02:28:00.048Z,0
2019-03-12T02:29:00.026Z,0
2019-03-12T02:29:59.980Z,0
2019-03-12T02:30:59.958Z,0
2019-03-12T02:31:59.914Z,0
2019-03-12T02:33:00.013Z,0
2019-03-12T02:33:59.863Z,0
2019-03-12T02:34:59.599Z,0
2019-03-12T02:35:59.795Z,0
2019-03-12T02:36:59.744Z,0
2019-03-12T02:37:59.758Z,0
2019-03-12T02:38:59.682Z,0
2019-03-12T02:39:59.651Z,0
2019-03-12T02:40:59.624Z,0
2019-03-12T02:41:59.636Z,0
2019-03-12T02:42:59.545Z,0
2019-03-12T02:43:59.511Z,0
2019-03-12T02:44:59.481Z,0
2019-03-12T02:45:59.466Z,0
2019-03-12T02:46:59.248Z,0
2019-03-12T02:47:59.392Z,0
2019-03-12T02:48:59.374Z,0
2019-03-12T02:49:59.336Z,0
2019-03-12T02:50:59.283Z,0
2019-03-12T02:51:59.266Z,0
2019-03-12T02:52:59.230Z,0
2019-03-12T02:53:59.180Z,0
2019-03-12T02:54:59.162Z,0
2019-03-12T02:56:01.703Z,0
2019-03-12T02:56:59.120Z,0
2019-03-12T02:57:59.057Z,0
2019-03-12T02:58:59.009Z,0
2019-03-12T02:59:58.984Z,0
2019-03-12T03:00:58.967Z,0
2019-03-12T03:01:58.924Z,0
2019-03-12T03:02:58.896Z,0
2019-03-12T03:03:58.843Z,0
2019-03-12T03:05:01.487Z,0
2019-03-12T03:05:58.828Z,0
2019-03-12T03:06:58.760Z,0
2019-03-12T03:07:58.753Z,0
2019-03-12T03:08:58.745Z,0
2019-03-12T03:09:58.646Z,0
2019-03-12T03:10:58.692Z,0
2019-03-12T03:11:58.775Z,0
2019-03-12T03:12:58.783Z,0
2019-03-12T03:13:58.582Z,0
2019-03-12T03:14:58.499Z,0
2019-03-12T03:15:58.454Z,0
2019-03-12T03:16:58.911Z,0
2019-03-12T03:17:58.399Z,0
2019-03-12T03:18:58.346Z,0
2019-03-12T03:19:58.323Z,0
2019-03-12T03:20:58.283Z,0
2019-03-12T03:21:58.291Z,0
2019-03-12T03:22:58.340Z,0
2019-03-12T03:23:58.184Z,0
2019-03-12T03:24:57.913Z,0
2019-03-12T03:25:58.119Z,0
2019-03-12T03:26:58.085Z,0
2019-03-12T03:27:58.051Z,0
2019-03-12T03:28:58.071Z,0
2019-03-12T03:29:58.106Z,0
2019-03-12T03:30:58.258Z,0
2019-03-12T03:31:57.926Z,0
2019-03-12T03:32:58.102Z,0
2019-03-12T03:33:57.922Z,0
2019-03-12T03:34:57.965Z,0
2019-03-12T03:35:57.804Z,0
2019-03-12T03:36:57.750Z,0
2019-03-12T03:37:57.801Z,0
2019-03-12T03:38:57.691Z,0
2019-03-12T03:39:57.653Z,0
2019-03-12T03:40:57.622Z,0
2019-03-12T03:41:57.400Z,0
2019-03-12T03:42:57.597Z,0
2019-03-12T03:43:57.520Z,0
2019-03-12T03:44:57.511Z,0
2019-03-12T03:45:57.460Z,0
2019-03-12T03:46:57.446Z,0
2019-03-12T03:47:57.386Z,0
2019-03-12T03:48:57.357Z,0
2019-03-12T03:49:57.316Z,0
2019-03-12T03:50:57.327Z,0
2019-03-12T03:51:57.270Z,0
2019-03-12T03:52:57.225Z,0
2019-03-12T03:53:57.180Z,0
2019-03-12T03:54:57.149Z,0
2019-03-12T03:55:57.117Z,0
2019-03-12T03:56:56.881Z,0
2019-03-12T03:57:57.293Z,0
2019-03-12T03:58:57.008Z,0
2019-03-12T03:59:57.127Z,0
2019-03-12T04:00:56.946Z,0
2019-03-12T04:01:56.914Z,0
2019-03-12T04:02:56.956Z,0
2019-03-12T04:03:56.846Z,0
2019-03-12T04:04:56.821Z,0
2019-03-12T04:05:56.780Z,0
2019-03-12T04:06:56.805Z,0
2019-03-12T04:07:56.760Z,0
2019-03-12T04:08:56.674Z,0
2019-03-12T04:09:56.440Z,0
2019-03-12T04:10:56.625Z,0
2019-03-12T04:11:56.585Z,0
2019-03-12T04:12:56.540Z,0
2019-03-12T04:13:56.513Z,0
2019-03-12T04:14:56.480Z,0
2019-03-12T04:15:56.463Z,0
2019-03-12T04:16:56.410Z,0
2019-03-12T04:17:56.220Z,0
2019-03-12T04:18:56.383Z,0
2019-03-12T04:19:56.312Z,0
2019-03-12T04:20:56.276Z,0
2019-03-12T04:21:56.039Z,0
2019-03-12T04:22:56.212Z,0
2019-03-12T04:23:56.179Z,0
2019-03-12T04:24:56.284Z,0
2019-03-12T04:25:56.226Z,0
2019-03-12T04:26:56.132Z,0
2019-03-12T04:27:56.051Z,0
2019-03-12T04:28:56.028Z,0
2019-03-12T04:29:55.990Z,0
2019-03-12T04:30:55.943Z,0
2019-03-12T04:31:55.960Z,0
2019-03-12T04:32:55.876Z,0
2019-03-12T04:33:55.848Z,0
2019-03-12T04:34:55.800Z,0
2019-03-12T04:35:55.768Z,0
2019-03-12T04:36:55.770Z,0
2019-03-12T04:37:55.707Z,0
2019-03-12T04:38:55.674Z,0
2019-03-12T04:39:55.640Z,0
2019-03-12T04:40:55.604Z,0
2019-03-12T04:41:55.570Z,0
2019-03-12T04:42:55.539Z,0
2019-03-12T04:43:55.525Z,0
2019-03-12T04:44:55.473Z,0
2019-03-12T04:45:55.436Z,0
2019-03-12T04:46:55.400Z,0
2019-03-12T04:47:55.391Z,0
2019-03-12T04:48:55.341Z,0
2019-03-12T04:49:55.306Z,0
2019-03-12T04:50:55.283Z,0
2019-03-12T04:51:55.237Z,0
2019-03-12T04:52:55.299Z,0
2019-03-12T04:53:55.174Z,0
2019-03-12T04:54:55.219Z,0
2019-03-12T04:55:55.123Z,0
2019-03-12T04:56:55.081Z,0
2019-03-12T04:57:55.044Z,0
2019-03-12T04:58:55.006Z,0
2019-03-12T04:59:54.972Z,0
2019-03-12T05:00:54.960Z,0
2019-03-12T05:01:54.919Z,0
2019-03-12T05:02:54.940Z,0
2019-03-12T05:03:54.848Z,0
2019-03-12T05:04:54.818Z,0
2019-03-12T05:05:54.778Z,0
2019-03-12T05:06:54.508Z,0
2019-03-12T05:07:54.721Z,0
2019-03-12T05:08:54.691Z,0
2019-03-12T05:09:54.716Z,0
2019-03-12T05:10:54.622Z,0
2019-03-12T05:11:54.340Z,0
2019-03-12T05:12:54.556Z,0
2019-03-12T05:13:54.512Z,0
2019-03-12T05:14:54.477Z,0
2019-03-12T05:15:54.722Z,0
2019-03-12T05:16:54.174Z,0
2019-03-12T05:17:54.398Z,4
2019-03-12T05:18:54.346Z,0
2019-03-12T05:19:54.314Z,0
2019-03-12T05:20:54.287Z,4
2019-03-12T05:21:54.014Z,0
2019-03-12T05:22:54.224Z,4
2019-03-12T05:23:54.195Z,4
2019-03-12T05:24:54.157Z,4
2019-03-12T05:25:54.128Z,4
2019-03-12T05:26:54.093Z,8
2019-03-12T05:27:54.055Z,8
2019-03-12T05:28:54.028Z,8
2019-03-12T05:29:53.992Z,12
2019-03-12T05:30:53.957Z,12
2019-03-12T05:31:53.929Z,16
2019-03-12T05:32:53.895Z,16
2019-03-12T05:33:53.855Z,20
2019-03-12T05:34:53.840Z,28
2019-03-12T05:35:54.097Z,32
2019-03-12T05:36:53.760Z,40
2019-03-12T05:37:53.735Z,44
2019-03-12T05:38:53.699Z,52
2019-03-12T05:39:53.691Z,60
2019-03-12T05:40:53.649Z,72
2019-03-12T05:41:53.627Z,84
2019-03-12T05:42:53.570Z,96
2019-03-12T05:43:53.533Z,116
2019-03-12T05:44:53.493Z,136
2019-03-12T05:45:53.619Z,160
2019-03-12T05:46:53.441Z,180
2019-03-12T05:47:53.402Z,204
2019-03-12T05:48:53.376Z,236
2019-03-12T05:49:53.336Z,268
2019-03-12T05:50:53.304Z,304
2019-03-12T05:51:53.269Z,340
2019-03-12T05:52:56.139Z,384
2019-03-12T05:53:53.214Z,424
2019-03-12T05:54:53.173Z,468
2019-03-12T05:55:53.148Z,524
2019-03-12T05:56:53.111Z,580
2019-03-12T05:57:53.167Z,636
2019-03-12T05:58:53.040Z,676
2019-03-12T05:59:53.004Z,708
2019-03-12T06:00:52.985Z,732
2019-03-12T06:01:53.997Z,760
2019-03-12T06:02:52.912Z,784
2019-03-12T06:03:52.882Z,820
2019-03-12T06:04:52.850Z,856
2019-03-12T06:05:52.811Z,900
2019-03-12T06:06:52.779Z,956
2019-03-12T06:07:55.332Z,1020
2019-03-12T06:08:52.722Z,1088
2019-03-12T06:09:52.772Z,1152
2019-03-12T06:10:52.654Z,1188
2019-03-12T06:11:53.654Z,1216
2019-03-12T06:12:53.109Z,1244
2019-03-12T06:13:52.924Z,1280
2019-03-12T06:14:52.523Z,1336
2019-03-12T06:15:55.542Z,1412
2019-03-12T06:16:52.605Z,1504
2019-03-12T06:17:52.425Z,1620
2019-03-12T06:18:52.394Z,1772
2019-03-12T06:19:52.129Z,1940
2019-03-12T06:20:52.328Z,2132
2019-03-12T06:21:52.300Z,2340
2019-03-12T06:22:52.299Z,2544
2019-03-12T06:23:52.229Z,2748
2019-03-12T06:24:52.268Z,2948
2019-03-12T06:25:52.186Z,3156
2019-03-12T06:26:51.897Z,3364
2019-03-12T06:27:52.103Z,3564
2019-03-12T06:28:52.141Z,3764
2019-03-12T06:29:52.061Z,3960
2019-03-12T06:30:52.006Z,4140
2019-03-12T06:31:51.743Z,4292
2019-03-12T06:32:52.047Z,4424
2019-03-12T06:33:51.911Z,4548
2019-03-12T06:34:51.888Z,4688
2019-03-12T06:35:54.143Z,4820
2019-03-12T06:36:51.573Z,4952
2019-03-12T06:37:51.781Z,5068
2019-03-12T06:38:51.751Z,5196
2019-03-12T06:39:51.749Z,5332
2019-03-12T06:40:51.508Z,5472
2019-03-12T06:41:51.654Z,5632
2019-03-12T06:42:51.630Z,5796
2019-03-12T06:43:51.603Z,5944
2019-03-12T06:44:51.569Z,6048
2019-03-12T06:45:51.531Z,6116
2019-03-12T06:46:51.500Z,6160
2019-03-12T06:47:53.679Z,6196
2019-03-12T06:48:51.442Z,6220
2019-03-12T06:49:51.419Z,6220
2019-03-12T06:50:51.377Z,6176
2019-03-12T06:51:51.347Z,6132
2019-03-12T06:52:51.313Z,6116
2019-03-12T06:53:51.284Z,6116
2019-03-12T06:54:51.252Z,6124
2019-03-12T06:55:51.226Z,6120
2019-03-12T06:56:51.378Z,6112
2019-03-12T06:57:51.265Z,6084
2019-03-12T06:58:51.269Z,6040
2019-03-12T06:59:51.109Z,5980
2019-03-12T07:00:51.073Z,5924
2019-03-12T07:01:51.059Z,5860
2019-03-12T07:02:51.082Z,5804
2019-03-12T07:03:51.338Z,5768
2019-03-12T07:04:51.375Z,5756
2019-03-12T07:05:50.917Z,5776
2019-03-12T07:06:50.883Z,5832
2019-03-12T07:07:53.033Z,5936
2019-03-12T07:08:50.850Z,6088
2019-03-12T07:09:50.801Z,6292
2019-03-12T07:10:50.767Z,6528
2019-03-12T07:11:50.730Z,6784
2019-03-12T07:12:50.470Z,7032
2019-03-12T07:13:50.678Z,7280
2019-03-12T07:14:50.644Z,7540
2019-03-12T07:15:50.614Z,7788
2019-03-12T07:16:50.583Z,8004
2019-03-12T07:17:52.796Z,8188
2019-03-12T07:18:50.520Z,8320
2019-03-12T07:19:50.488Z,8428
2019-03-12T07:20:50.453Z,8508
2019-03-12T07:21:50.193Z,8564
2019-03-12T07:22:50.419Z,8592
2019-03-12T07:23:50.390Z,8644
2019-03-12T07:24:50.347Z,8696
2019-03-12T07:25:53.355Z,8744
2019-03-12T07:26:50.298Z,8752
2019-03-12T07:27:50.257Z,8704
2019-03-12T07:28:57.340Z,8596
2019-03-12T07:29:50.200Z,8488
2019-03-12T07:30:50.167Z,8368
2019-03-12T07:31:50.136Z,8300
2019-03-12T07:32:50.186Z,8220
2019-03-12T07:33:50.074Z,8092
2019-03-12T07:34:50.044Z,7972
2019-03-12T07:35:49.789Z,8004
2019-03-12T07:36:49.985Z,8116
2019-03-12T07:37:49.969Z,8208
2019-03-12T07:38:49.934Z,8248
2019-03-12T07:39:49.891Z,8240
2019-03-12T07:40:49.874Z,8228
2019-03-12T07:41:49.837Z,8216
2019-03-12T07:42:49.914Z,8196
2019-03-12T07:43:51.202Z,8184
2019-03-12T07:44:51.257Z,8228
2019-03-12T07:45:51.318Z,8296
2019-03-12T07:46:49.451Z,8376
2019-03-12T07:47:49.754Z,8448
2019-03-12T07:48:49.632Z,8504
2019-03-12T07:49:49.714Z,8560
2019-03-12T07:50:49.571Z,8600
2019-03-12T07:51:49.428Z,8628
2019-03-12T07:52:49.530Z,8640
2019-03-12T07:54:01.868Z,8732
2019-03-12T07:54:49.453Z,8940
2019-03-12T07:55:49.424Z,9272
2019-03-12T07:56:49.162Z,9600
2019-03-12T07:57:49.370Z,9892
2019-03-12T07:58:49.341Z,10164
2019-03-12T07:59:49.323Z,10420
2019-03-12T08:00:49.284Z,10668
2019-03-12T08:01:49.266Z,10876
2019-03-12T08:02:49.227Z,11036
2019-03-12T08:03:49.194Z,11168
2019-03-12T08:04:50.742Z,11292
2019-03-12T08:05:49.136Z,11404
2019-03-12T08:06:49.109Z,11520
2019-03-12T08:07:49.589Z,11664
2019-03-12T08:08:49.770Z,11816
2019-03-12T08:09:49.018Z,11988
2019-03-12T08:10:48.993Z,12156
2019-03-12T08:11:48.956Z,12312
2019-03-12T08:12:48.932Z,12432
2019-03-12T08:13:48.921Z,12492
2019-03-12T08:14:48.945Z,12496
2019-03-12T08:15:50.520Z,12468
2019-03-12T08:16:48.818Z,12436
2019-03-12T08:17:48.809Z,12444
2019-03-12T08:18:48.767Z,12472
2019-03-12T08:19:48.739Z,12524
2019-03-12T08:20:48.708Z,12592
2019-03-12T08:21:52.104Z,12660
2019-03-12T08:22:48.651Z,12568
2019-03-12T08:23:48.620Z,12460
2019-03-12T08:24:48.595Z,12648
2019-03-12T08:25:51.105Z,12540
2019-03-12T08:26:48.540Z,11828
2019-03-12T08:27:48.505Z,11120
2019-03-12T08:28:48.481Z,11144
2019-03-12T08:29:48.460Z,11340
2019-03-12T08:30:48.426Z,11256
2019-03-12T08:31:48.393Z,11648
2019-03-12T08:32:48.421Z,12384
2019-03-12T08:33:57.953Z,12668
2019-03-12T08:34:49.094Z,12588
2019-03-12T08:35:48.840Z,12440
2019-03-12T08:36:48.261Z,12288
2019-03-12T08:37:48.248Z,12180
2019-03-12T08:38:51.191Z,12152
2019-03-12T08:39:48.179Z,12232
2019-03-12T08:40:59.488Z,12436
2019-03-12T08:41:48.130Z,12620
2019-03-12T08:43:01.082Z,12888
2019-03-12T08:43:48.063Z,13024
2019-03-12T08:44:49.578Z,13120
2019-03-12T08:45:51.397Z,13148
2019-03-12T08:46:47.989Z,13200
2019-03-12T08:47:47.955Z,13364
2019-03-12T08:48:47.929Z,13656
2019-03-12T08:49:47.905Z,14132
2019-03-12T08:50:47.888Z,14672
2019-03-12T08:51:47.850Z,15296
2019-03-12T08:52:48.074Z,15900
2019-03-12T08:53:50.951Z,16312
2019-03-12T08:55:03.586Z,16456
2019-03-12T08:55:47.738Z,16276
2019-03-12T08:56:47.717Z,15820
2019-03-12T08:57:47.702Z,15312
2019-03-12T08:58:47.651Z,14964
2019-03-12T08:59:47.619Z,14860
2019-03-12T09:00:47.720Z,15048
2019-03-12T09:01:52.316Z,15524
2019-03-12T09:02:48.534Z,16060
2019-03-12T09:03:47.536Z,16584
2019-03-12T09:04:47.631Z,16884
2019-03-12T09:05:47.462Z,16904
2019-03-12T09:06:47.444Z,16772
2019-03-12T09:07:47.399Z,16552
2019-03-12T09:08:47.382Z,16272
2019-03-12T09:09:47.351Z,16060
2019-03-12T09:10:47.317Z,16112
2019-03-12T09:11:47.297Z,16460
2019-03-12T09:12:47.611Z,17280
2019-03-12T09:13:47.240Z,18112
2019-03-12T09:14:47.220Z,18752
2019-03-12T09:15:48.154Z,19168
2019-03-12T09:16:47.169Z,19392
2019-03-12T09:17:47.133Z,19552
2019-03-12T09:18:47.143Z,19648
2019-03-12T09:19:47.091Z,19648
2019-03-12T09:20:47.084Z,19552
2019-03-12T09:21:47.415Z,19232
2019-03-12T09:22:48.670Z,18656
2019-03-12T09:23:48.022Z,18240
2019-03-12T09:24:46.951Z,18240
2019-03-12T09:25:46.941Z,18656
2019-03-12T09:26:47.044Z,19232
2019-03-12T09:27:46.868Z,19776
2019-03-12T09:28:47.109Z,20256
2019-03-12T09:29:46.832Z,20608
2019-03-12T09:30:46.959Z,20928
2019-03-12T09:31:46.762Z,21120
2019-03-12T09:32:48.242Z,21216
2019-03-12T09:33:46.712Z,21280
2019-03-12T09:34:46.775Z,21312
2019-03-12T09:35:46.420Z,21152
2019-03-12T09:36:46.636Z,20896
2019-03-12T09:37:46.612Z,20640
2019-03-12T09:38:46.593Z,20288
2019-03-12T09:39:46.574Z,20032
2019-03-12T09:40:46.545Z,20160
2019-03-12T09:41:46.506Z,20576
2019-03-12T09:42:46.488Z,21152
2019-03-12T09:43:48.137Z,21504
2019-03-12T09:44:46.424Z,21632
2019-03-12T09:45:46.406Z,21472
2019-03-12T09:46:46.390Z,21216
2019-03-12T09:47:46.342Z,20896
2019-03-12T09:48:46.339Z,20512
2019-03-12T09:49:46.310Z,20064
2019-03-12T09:50:46.277Z,19488
2019-03-12T09:51:46.243Z,18912
2019-03-12T09:52:46.224Z,18432
2019-03-12T09:53:46.195Z,18048
2019-03-12T09:54:46.179Z,17888
2019-03-12T09:55:46.150Z,17728
2019-03-12T09:56:46.120Z,17824
2019-03-12T09:57:46.095Z,18080
2019-03-12T09:58:46.083Z,18464
2019-03-12T09:59:46.040Z,18944
2019-03-12T10:00:46.016Z,19424
2019-03-12T10:01:46.007Z,19936
2019-03-12T10:02:45.977Z,20384
2019-03-12T10:03:45.943Z,20832
2019-03-12T10:04:45.969Z,21184
2019-03-12T10:05:46.028Z,21440
2019-03-12T10:06:45.866Z,21600
2019-03-12T10:07:47.282Z,21632
2019-03-12T10:08:45.588Z,21632
2019-03-12T10:09:45.909Z,21696
2019-03-12T10:10:45.767Z,21792
2019-03-12T10:11:45.743Z,21920
2019-03-12T10:12:47.841Z,22048
2019-03-12T10:13:45.699Z,22144
2019-03-12T10:14:45.672Z,22048
2019-03-12T10:15:45.642Z,22016
2019-03-12T10:16:45.610Z,21984
2019-03-12T10:17:45.588Z,21952
2019-03-12T10:18:45.556Z,21952
2019-03-12T10:19:45.548Z,21920
2019-03-12T10:20:45.519Z,21888
2019-03-12T10:21:45.533Z,21792
2019-03-12T10:22:45.468Z,21632
2019-03-12T10:23:45.444Z,21472
2019-03-12T10:24:45.410Z,21216
2019-03-12T10:25:45.402Z,20960
2019-03-12T10:26:45.404Z,20768
2019-03-12T10:27:45.338Z,20576
2019-03-12T10:28:45.320Z,20384
2019-03-12T10:29:45.289Z,20000
2019-03-12T10:30:45.270Z,19680
2019-03-12T10:31:45.246Z,19328
2019-03-12T10:32:45.213Z,19040
2019-03-12T10:33:45.222Z,19136
2019-03-12T10:34:45.174Z,19616
2019-03-12T10:35:45.141Z,20192
2019-03-12T10:36:45.115Z,20544
2019-03-12T10:37:45.093Z,20704
2019-03-12T10:38:45.069Z,20736
2019-03-12T10:39:45.043Z,20736
2019-03-12T10:40:45.015Z,20736
2019-03-12T10:41:44.989Z,20864
2019-03-12T10:42:44.970Z,21024
2019-03-12T10:43:44.942Z,21216
2019-03-12T10:44:44.921Z,21440
2019-03-12T10:45:44.949Z,21600
2019-03-12T10:46:44.866Z,21728
2019-03-12T10:47:44.864Z,21856
2019-03-12T10:48:44.823Z,21984
2019-03-12T10:49:45.006Z,22112
2019-03-12T10:50:44.778Z,22304
2019-03-12T10:51:44.741Z,22432
2019-03-12T10:52:44.718Z,22592
2019-03-12T10:53:44.949Z,22720
2019-03-12T10:54:44.671Z,22848
2019-03-12T10:55:44.490Z,23040
2019-03-12T10:56:44.616Z,23136
2019-03-12T10:57:44.598Z,23232
2019-03-12T10:58:44.671Z,23328
2019-03-12T10:59:44.451Z,23424
2019-03-12T11:00:44.544Z,23520
2019-03-12T11:01:44.506Z,23584
2019-03-12T11:02:47.798Z,23584
2019-03-12T11:03:44.456Z,23488
2019-03-12T11:04:44.890Z,23392
2019-03-12T11:05:52.961Z,23264
2019-03-12T11:06:44.382Z,23232
2019-03-12T11:07:44.114Z,23296
2019-03-12T11:08:44.368Z,23392
2019-03-12T11:09:44.299Z,23488
2019-03-12T11:10:44.504Z,23552
2019-03-12T11:11:44.368Z,23520
2019-03-12T11:12:44.597Z,23520
2019-03-12T11:13:44.544Z,23488
2019-03-12T11:14:44.185Z,23584
2019-03-12T11:15:44.184Z,23680
2019-03-12T11:16:44.395Z,23776
2019-03-12T11:17:56.531Z,23744
2019-03-12T11:18:44.558Z,23648
2019-03-12T11:19:44.372Z,23552
2019-03-12T11:20:43.907Z,23520
2019-03-12T11:21:43.969Z,23744
2019-03-12T11:22:44.013Z,23904
2019-03-12T11:23:43.973Z,24000
2019-03-12T11:24:43.952Z,24224
2019-03-12T11:25:43.921Z,24640
2019-03-12T11:26:43.894Z,24800
2019-03-12T11:27:43.872Z,24672
2019-03-12T11:28:43.850Z,24704
2019-03-12T11:29:43.834Z,24544
2019-03-12T11:30:43.816Z,23872
2019-03-12T11:31:43.780Z,23264
2019-03-12T11:32:43.769Z,22976
2019-03-12T11:33:43.735Z,23104
2019-03-12T11:34:45.729Z,23520
2019-03-12T11:35:46.530Z,23520
2019-03-12T11:36:43.895Z,23488
2019-03-12T11:37:43.712Z,23392
2019-03-12T11:38:43.628Z,23008
2019-03-12T11:39:43.650Z,22464
2019-03-12T11:40:43.572Z,22016
2019-03-12T11:41:43.621Z,21696
2019-03-12T11:42:43.424Z,21600
2019-03-12T11:43:43.565Z,21536
2019-03-12T11:44:43.784Z,21632
2019-03-12T11:45:44.899Z,21760
2019-03-12T11:46:51.373Z,21824
2019-03-12T11:47:43.457Z,21952
2019-03-12T11:48:43.470Z,22176
2019-03-12T11:49:43.416Z,22336
2019-03-12T11:50:43.362Z,22464
2019-03-12T11:51:43.350Z,22528
2019-03-12T11:52:51.812Z,22496
2019-03-12T11:53:43.321Z,22432
2019-03-12T11:54:43.290Z,22400
2019-03-12T11:55:43.261Z,22400
2019-03-12T11:56:43.299Z,22464
2019-03-12T11:57:43.225Z,22624
2019-03-12T11:58:43.187Z,22848
2019-03-12T11:59:43.421Z,23136
2019-03-12T12:00:43.183Z,23264
2019-03-12T12:01:43.079Z,23328
2019-03-12T12:02:43.248Z,23296
2019-03-12T12:03:43.178Z,23264
2019-03-12T12:04:43.041Z,23264
2019-03-12T12:05:43.031Z,23104
2019-03-12T12:06:47.459Z,22944
2019-03-12T12:07:43.196Z,22720
2019-03-12T12:08:42.958Z,22624
2019-03-12T12:09:43.169Z,22592
2019-03-12T12:10:43.498Z,22304
2019-03-12T12:11:44.243Z,21760
2019-03-12T12:12:44.799Z,20960
2019-03-12T12:13:43.539Z,20160
2019-03-12T12:14:42.931Z,19520
2019-03-12T12:15:42.545Z,19264
2019-03-12T12:16:42.960Z,19200
2019-03-12T12:17:44.680Z,19104
2019-03-12T12:18:42.898Z,18944
2019-03-12T12:19:42.690Z,18880
2019-03-12T12:20:42.958Z,19072
2019-03-12T12:21:42.632Z,19808
2019-03-12T12:22:42.607Z,20672
2019-03-12T12:23:43.009Z,21344
2019-03-12T12:24:42.557Z,21984
2019-03-12T12:25:42.534Z,22464
2019-03-12T12:26:42.520Z,22528
2019-03-12T12:27:42.485Z,22464
2019-03-12T12:28:42.462Z,22528
2019-03-12T12:29:42.439Z,22784
2019-03-12T12:30:42.416Z,23136
2019-03-12T12:31:42.387Z,23424
2019-03-12T12:32:42.414Z,23520
2019-03-12T12:33:42.344Z,23712
2019-03-12T12:34:42.326Z,23744
2019-03-12T12:35:42.439Z,23552
2019-03-12T12:36:42.283Z,23456
2019-03-12T12:37:42.262Z,23552
2019-03-12T12:38:42.227Z,23584
2019-03-12T12:39:42.205Z,23776
2019-03-12T12:40:42.184Z,23840
2019-03-12T12:41:42.169Z,23936
2019-03-12T12:42:43.359Z,24160
2019-03-12T12:43:41.897Z,24480
2019-03-12T12:44:42.093Z,24512
2019-03-12T12:45:42.074Z,24416
2019-03-12T12:46:42.051Z,24160
2019-03-12T12:47:42.023Z,23904
2019-03-12T12:48:42.005Z,23584
2019-03-12T12:49:42.003Z,23168
2019-03-12T12:50:41.484Z,23008
2019-03-12T12:51:41.952Z,23040
2019-03-12T12:52:41.918Z,23008
2019-03-12T12:53:41.903Z,22912
2019-03-12T12:54:41.872Z,22624
2019-03-12T12:55:41.860Z,22048
2019-03-12T12:56:41.823Z,21536
2019-03-12T12:57:41.804Z,21184
2019-03-12T12:58:41.779Z,21024
2019-03-12T12:59:41.763Z,20864
2019-03-12T13:00:43.287Z,20736
2019-03-12T13:01:41.718Z,20704
2019-03-12T13:02:41.690Z,20800
2019-03-12T13:03:41.670Z,21056
2019-03-12T13:04:41.649Z,21216
2019-03-12T13:05:41.630Z,21312
2019-03-12T13:06:41.632Z,21248
2019-03-12T13:07:41.583Z,21184
2019-03-12T13:08:41.556Z,21120
2019-03-12T13:09:41.533Z,21056
2019-03-12T13:10:41.621Z,21120
2019-03-12T13:11:41.484Z,21312
2019-03-12T13:12:41.462Z,21600
2019-03-12T13:13:41.502Z,21888
2019-03-12T13:14:48.706Z,22080
2019-03-12T13:15:41.397Z,22304
2019-03-12T13:16:41.392Z,22592
2019-03-12T13:17:41.354Z,22784
2019-03-12T13:18:41.328Z,22848
2019-03-12T13:19:41.749Z,22560
2019-03-12T13:20:41.066Z,21760
2019-03-12T13:21:41.260Z,20960
2019-03-12T13:22:41.241Z,20352
2019-03-12T13:23:43.400Z,19712
2019-03-12T13:24:41.286Z,19200
2019-03-12T13:25:41.175Z,18720
2019-03-12T13:26:41.162Z,18272
2019-03-12T13:27:49.450Z,18464
2019-03-12T13:28:40.856Z,19072
2019-03-12T13:29:41.069Z,19616
2019-03-12T13:30:41.057Z,19808
2019-03-12T13:31:41.030Z,20064
2019-03-12T13:32:41.632Z,20384
2019-03-12T13:33:40.978Z,20256
2019-03-12T13:34:40.968Z,20256
2019-03-12T13:35:40.930Z,20320
2019-03-12T13:36:40.909Z,20352
2019-03-12T13:37:40.891Z,20160
2019-03-12T13:38:53.618Z,19264
2019-03-12T13:39:40.971Z,18816
2019-03-12T13:40:40.968Z,18560